sensor_id;sensor_type;location;lat;lon;timestamp;pressure;altitude;pressure_sealevel;temperature;humidity
39455;BME280;25155;41.890;23.446;2023-04-01T04:48:32;91084.22;;;2.20;62.90
39455;BME280;25155;41.890;23.446;2023-04-01T04:50:59;91073.69;;;2.26;62.14
39455;BME280;25155;41.890;23.446;2023-04-01T04:53:26;91080.41;;;2.32;61.66
39455;BME280;25155;41.890;23.446;2023-04-01T04:55:53;91086.16;;;2.40;61.26
39455;BME280;25155;41.890;23.446;2023-04-01T04:58:20;91080.19;;;2.44;61.11
39455;BME280;25155;41.890;23.446;2023-04-01T05:00:48;91080.50;;;2.48;61.39
39455;BME280;25155;41.890;23.446;2023-04-01T05:03:15;91087.47;;;2.47;62.41
39455;BME280;25155;41.890;23.446;2023-04-01T05:05:50;91075.34;;;2.53;62.14
39455;BME280;25155;41.890;23.446;2023-04-01T05:08:19;91078.22;;;2.67;61.82
39455;BME280;25155;41.890;23.446;2023-04-01T05:10:47;91065.84;;;2.79;61.72
39455;BME280;25155;41.890;23.446;2023-04-01T05:13:14;91050.13;;;2.91;61.43
39455;BME280;25155;41.890;23.446;2023-04-01T05:15:41;91051.69;;;2.97;61.45
39455;BME280;25155;41.890;23.446;2023-04-01T05:18:08;91055.59;;;3.05;61.06
39455;BME280;25155;41.890;23.446;2023-04-01T05:20:35;91047.84;;;3.15;60.91
39455;BME280;25155;41.890;23.446;2023-04-01T05:23:04;91051.22;;;3.21;60.75
39455;BME280;25155;41.890;23.446;2023-04-01T05:25:31;91047.88;;;3.31;60.88
39455;BME280;25155;41.890;23.446;2023-04-01T05:27:58;91058.25;;;3.36;61.13
39455;BME280;25155;41.890;23.446;2023-04-01T05:30:25;91044.78;;;3.39;61.50
39455;BME280;25155;41.890;23.446;2023-04-01T05:32:52;91024.31;;;3.42;61.18
39455;BME280;25155;41.890;23.446;2023-04-01T05:35:20;91022.22;;;3.50;60.78
39455;BME280;25155;41.890;23.446;2023-04-01T05:37:47;91021.72;;;3.58;60.91
39455;BME280;25155;41.890;23.446;2023-04-01T05:40:16;91011.84;;;3.60;61.13
39455;BME280;25155;41.890;23.446;2023-04-01T05:42:43;91012.13;;;3.69;60.67
39455;BME280;25155;41.890;23.446;2023-04-01T05:45:10;91015.47;;;3.79;61.48
39455;BME280;25155;41.890;23.446;2023-04-01T05:47:41;91020.13;;;3.88;60.90
39455;BME280;25155;41.890;23.446;2023-04-01T05:50:09;91019.84;;;3.89;60.87
39455;BME280;25155;41.890;23.446;2023-04-01T05:52:36;91009.47;;;3.94;60.63
39455;BME280;25155;41.890;23.446;2023-04-01T05:55:05;90998.84;;;4.01;60.92
39455;BME280;25155;41.890;23.446;2023-04-01T05:57:33;91006.56;;;4.11;60.58
39455;BME280;25155;41.890;23.446;2023-04-01T06:00:00;91017.72;;;4.17;60.83
39455;BME280;25155;41.890;23.446;2023-04-01T06:02:27;91006.28;;;4.28;60.90
39455;BME280;25155;41.890;23.446;2023-04-01T06:05:02;90992.78;;;4.36;61.19
39455;BME280;25155;41.890;23.446;2023-04-01T06:25:34;90985.72;;;5.95;56.90
39455;BME280;25155;41.890;23.446;2023-04-01T06:31:06;90969.63;;;5.93;57.37
39455;BME280;25155;41.890;23.446;2023-04-01T06:33:46;90965.97;;;5.94;57.41
39455;BME280;25155;41.890;23.446;2023-04-01T06:36:47;90940.63;;;5.81;57.29
39455;BME280;25155;41.890;23.446;2023-04-01T06:39:48;90948.97;;;5.78;57.09
39455;BME280;25155;41.890;23.446;2023-04-01T06:42:45;90949.16;;;5.86;57.13
39455;BME280;25155;41.890;23.446;2023-04-01T06:45:31;90950.81;;;6.01;57.13
39455;BME280;25155;41.890;23.446;2023-04-01T06:48:15;90948.06;;;6.17;56.99
39455;BME280;25155;41.890;23.446;2023-04-01T06:50:52;90931.53;;;6.27;56.58
39455;BME280;25155;41.890;23.446;2023-04-01T06:53:27;90937.97;;;6.34;55.64
39455;BME280;25155;41.890;23.446;2023-04-01T06:56:01;90933.19;;;6.41;55.66
39455;BME280;25155;41.890;23.446;2023-04-01T06:58:34;90937.81;;;6.45;55.40
39455;BME280;25155;41.890;23.446;2023-04-01T07:01:07;90936.28;;;6.44;54.56
39455;BME280;25155;41.890;23.446;2023-04-01T07:03:37;90936.56;;;6.42;54.37
39455;BME280;25155;41.890;23.446;2023-04-01T07:06:12;90942.13;;;6.35;54.20
39455;BME280;25155;41.890;23.446;2023-04-01T07:08:43;90939.56;;;6.30;54.41
39455;BME280;25155;41.890;23.446;2023-04-01T07:11:20;90936.72;;;6.27;54.74
39455;BME280;25155;41.890;23.446;2023-04-01T07:13:53;90949.13;;;6.35;54.73
39455;BME280;25155;41.890;23.446;2023-04-01T07:16:25;90939.16;;;6.42;54.45
39455;BME280;25155;41.890;23.446;2023-04-01T07:18:59;90941.03;;;6.36;54.36
39455;BME280;25155;41.890;23.446;2023-04-01T07:21:31;90943.72;;;6.31;54.27
39455;BME280;25155;41.890;23.446;2023-04-01T07:24:04;90941.59;;;6.33;54.66
39455;BME280;25155;41.890;23.446;2023-04-01T07:26:34;90931.53;;;6.27;54.62
39455;BME280;25155;41.890;23.446;2023-04-01T07:29:01;90924.44;;;6.32;54.72
39455;BME280;25155;41.890;23.446;2023-04-01T07:31:48;90922.13;;;6.31;54.57
39455;BME280;25155;41.890;23.446;2023-04-01T07:34:21;90923.38;;;6.33;54.71
39455;BME280;25155;41.890;23.446;2023-04-01T07:36:54;90917.34;;;6.38;54.88
39455;BME280;25155;41.890;23.446;2023-04-01T07:39:35;90901.94;;;6.41;54.60
39455;BME280;25155;41.890;23.446;2023-04-01T07:42:12;90890.41;;;6.48;54.12
39455;BME280;25155;41.890;23.446;2023-04-01T07:44:51;90896.09;;;6.50;54.09
39455;BME280;25155;41.890;23.446;2023-04-01T07:47:36;90892.19;;;6.52;54.04
39455;BME280;25155;41.890;23.446;2023-04-01T07:50:14;90900.69;;;6.58;53.99
39455;BME280;25155;41.890;23.446;2023-04-01T07:52:51;90902.72;;;6.61;54.32
39455;BME280;25155;41.890;23.446;2023-04-01T07:55:26;90898.25;;;6.67;54.65
39455;BME280;25155;41.890;23.446;2023-04-01T07:58:00;90893.16;;;6.75;54.53
39455;BME280;25155;41.890;23.446;2023-04-01T08:00:36;90893.16;;;6.75;54.86
39455;BME280;25155;41.890;23.446;2023-04-01T08:03:21;90883.22;;;6.77;55.31
39455;BME280;25155;41.890;23.446;2023-04-01T08:05:56;90880.84;;;6.81;55.59
39455;BME280;25155;41.890;23.446;2023-04-01T08:08:34;90872.75;;;6.83;55.25
39455;BME280;25155;41.890;23.446;2023-04-01T08:11:09;90864.94;;;6.83;56.03
39455;BME280;25155;41.890;23.446;2023-04-01T08:13:42;90853.38;;;6.89;55.49
39455;BME280;25155;41.890;23.446;2023-04-01T08:16:18;90845.13;;;7.01;55.60
39455;BME280;25155;41.890;23.446;2023-04-01T08:18:54;90846.88;;;7.05;55.77
39455;BME280;25155;41.890;23.446;2023-04-01T08:21:27;90842.06;;;7.12;55.54
39455;BME280;25155;41.890;23.446;2023-04-01T08:23:56;90839.50;;;7.26;55.78
39455;BME280;25155;41.890;23.446;2023-04-01T08:26:30;90843.81;;;7.36;56.15
39455;BME280;25155;41.890;23.446;2023-04-01T08:29:08;90842.16;;;7.40;56.32
39455;BME280;25155;41.890;23.446;2023-04-01T08:31:41;90839.06;;;7.52;55.94
39455;BME280;25155;41.890;23.446;2023-04-01T08:34:15;90831.28;;;7.66;55.84
39455;BME280;25155;41.890;23.446;2023-04-01T08:36:48;90836.00;;;7.78;56.13
39455;BME280;25155;41.890;23.446;2023-04-01T08:39:24;90833.66;;;7.90;55.89
39455;BME280;25155;41.890;23.446;2023-04-01T08:42:17;90809.50;;;7.98;55.81
39455;BME280;25155;41.890;23.446;2023-04-01T08:45:17;90816.84;;;8.10;56.03
39455;BME280;25155;41.890;23.446;2023-04-01T08:47:54;90812.38;;;8.24;55.66
39455;BME280;25155;41.890;23.446;2023-04-01T08:53:48;90810.38;;;8.44;55.53
39455;BME280;25155;41.890;23.446;2023-04-01T08:56:20;90808.50;;;8.58;55.52
39455;BME280;25155;41.890;23.446;2023-04-01T08:59:24;90797.34;;;8.67;55.56
39455;BME280;25155;41.890;23.446;2023-04-01T09:02:43;90798.06;;;8.81;55.21
39455;BME280;25155;41.890;23.446;2023-04-01T09:05:35;90788.19;;;8.92;53.83
39455;BME280;25155;41.890;23.446;2023-04-01T09:11:17;90786.91;;;9.12;53.35
39455;BME280;25155;41.890;23.446;2023-04-01T09:14:19;90790.31;;;9.21;52.41
39455;BME280;25155;41.890;23.446;2023-04-01T09:17:05;90779.44;;;9.28;52.61
39455;BME280;25155;41.890;23.446;2023-04-01T09:19:57;90775.31;;;9.35;52.97
39455;BME280;25155;41.890;23.446;2023-04-01T09:22:37;90775.66;;;9.43;52.97
39455;BME280;25155;41.890;23.446;2023-04-01T09:25:43;90769.97;;;9.41;53.39
39455;BME280;25155;41.890;23.446;2023-04-01T09:28:17;90760.78;;;9.52;53.85
39455;BME280;25155;41.890;23.446;2023-04-01T09:31:04;90749.56;;;9.60;53.70
39455;BME280;25155;41.890;23.446;2023-04-01T09:37:09;90735.91;;;9.81;54.62
39455;BME280;25155;41.890;23.446;2023-04-01T09:43:00;90712.75;;;10.14;55.24
39455;BME280;25155;41.890;23.446;2023-04-01T09:45:42;90711.03;;;10.27;54.45
39455;BME280;25155;41.890;23.446;2023-04-01T09:48:21;90687.34;;;10.41;53.76
39455;BME280;25155;41.890;23.446;2023-04-01T09:51:00;90687.44;;;10.62;54.77
39455;BME280;25155;41.890;23.446;2023-04-01T09:53:49;90691.28;;;10.73;53.57
39455;BME280;25155;41.890;23.446;2023-04-01T10:06:02;90672.88;;;10.99;50.47
39455;BME280;25155;41.890;23.446;2023-04-01T10:08:45;90665.56;;;10.75;50.88
39455;BME280;25155;41.890;23.446;2023-04-01T10:14:46;90656.66;;;11.06;50.02
39455;BME280;25155;41.890;23.446;2023-04-01T10:20:35;90650.53;;;11.32;50.01
39455;BME280;25155;41.890;23.446;2023-04-01T10:23:25;90643.38;;;11.41;49.69
39455;BME280;25155;41.890;23.446;2023-04-01T10:26:18;90629.88;;;11.51;49.90
39455;BME280;25155;41.890;23.446;2023-04-01T10:29:18;90626.63;;;11.63;50.05
39455;BME280;25155;41.890;23.446;2023-04-01T10:32:27;90625.16;;;11.74;49.17
39455;BME280;25155;41.890;23.446;2023-04-01T10:42:02;90625.94;;;11.75;47.14
39455;BME280;25155;41.890;23.446;2023-04-01T10:50:30;90611.25;;;11.95;46.72
39455;BME280;25155;41.890;23.446;2023-04-01T10:53:37;90605.56;;;11.93;46.80
39455;BME280;25155;41.890;23.446;2023-04-01T10:59:20;90597.41;;;12.07;46.27
39455;BME280;25155;41.890;23.446;2023-04-01T11:02:19;90596.34;;;12.08;46.34
39455;BME280;25155;41.890;23.446;2023-04-01T11:14:39;90567.25;;;12.13;46.43
39455;BME280;25155;41.890;23.446;2023-04-01T11:17:36;90564.09;;;12.20;46.29
39455;BME280;25155;41.890;23.446;2023-04-01T11:20:24;90552.84;;;12.31;46.63
39455;BME280;25155;41.890;23.446;2023-04-01T11:23:07;90562.31;;;12.45;46.68
39455;BME280;25155;41.890;23.446;2023-04-01T11:25:54;90554.22;;;12.50;46.67
39455;BME280;25155;41.890;23.446;2023-04-01T11:28:40;90549.41;;;12.64;47.70
39455;BME280;25155;41.890;23.446;2023-04-01T11:31:26;90532.47;;;12.86;48.79
39455;BME280;25155;41.890;23.446;2023-04-01T11:34:04;90542.00;;;13.16;48.42
39455;BME280;25155;41.890;23.446;2023-04-01T11:36:46;90528.41;;;13.38;48.06
39455;BME280;25155;41.890;23.446;2023-04-01T11:39:25;90530.22;;;13.50;46.56
39455;BME280;25155;41.890;23.446;2023-04-01T11:42:07;90534.47;;;13.67;47.42
39455;BME280;25155;41.890;23.446;2023-04-01T11:44:39;90513.34;;;13.79;43.55
39455;BME280;25155;41.890;23.446;2023-04-01T11:47:22;90515.22;;;13.79;37.45
39455;BME280;25155;41.890;23.446;2023-04-01T11:50:00;90500.97;;;13.80;37.81
39455;BME280;25155;41.890;23.446;2023-04-01T11:53:06;90498.78;;;13.70;36.58
39455;BME280;25155;41.890;23.446;2023-04-01T11:55:46;90485.88;;;13.65;38.45
39455;BME280;25155;41.890;23.446;2023-04-01T11:58:36;90487.94;;;13.71;38.90
39455;BME280;25155;41.890;23.446;2023-04-01T12:01:22;90483.97;;;13.77;36.50
39455;BME280;25155;41.890;23.446;2023-04-01T12:07:01;90485.09;;;13.64;36.11
39455;BME280;25155;41.890;23.446;2023-04-01T12:09:36;90474.25;;;13.66;36.84
39455;BME280;25155;41.890;23.446;2023-04-01T12:12:18;90475.34;;;13.65;36.74
39455;BME280;25155;41.890;23.446;2023-04-01T12:14:58;90475.66;;;13.63;38.23
39455;BME280;25155;41.890;23.446;2023-04-01T12:17:34;90486.72;;;13.40;37.41
39455;BME280;25155;41.890;23.446;2023-04-01T12:20:26;90489.47;;;13.32;37.51
39455;BME280;25155;41.890;23.446;2023-04-01T12:23:03;90516.38;;;13.13;38.87
39455;BME280;25155;41.890;23.446;2023-04-01T12:25:57;90537.16;;;12.68;42.57
39455;BME280;25155;41.890;23.446;2023-04-01T12:28:41;90535.81;;;12.38;44.13
39455;BME280;25155;41.890;23.446;2023-04-01T12:31:25;90543.97;;;12.24;46.05
39455;BME280;25155;41.890;23.446;2023-04-01T12:34:28;90544.59;;;12.21;49.44
39455;BME280;25155;41.890;23.446;2023-04-01T12:37:07;90542.25;;;11.94;50.82
39455;BME280;25155;41.890;23.446;2023-04-01T12:39:53;90551.84;;;11.90;53.10
39455;BME280;25155;41.890;23.446;2023-04-01T12:42:35;90561.63;;;11.81;54.11
39455;BME280;25155;41.890;23.446;2023-04-01T12:45:26;90565.38;;;11.80;54.93
39455;BME280;25155;41.890;23.446;2023-04-01T12:54:22;90566.56;;;11.83;50.70
39455;BME280;25155;41.890;23.446;2023-04-01T12:56:59;90561.38;;;11.95;52.04
39455;BME280;25155;41.890;23.446;2023-04-01T12:59:48;90569.47;;;11.90;49.10
39455;BME280;25155;41.890;23.446;2023-04-01T13:02:28;90575.84;;;12.01;50.02
39455;BME280;25155;41.890;23.446;2023-04-01T13:05:24;90580.06;;;12.15;50.01
39455;BME280;25155;41.890;23.446;2023-04-01T13:08:07;90594.50;;;12.21;49.85
39455;BME280;25155;41.890;23.446;2023-04-01T13:13:51;90574.78;;;12.48;47.43
39455;BME280;25155;41.890;23.446;2023-04-01T13:16:24;90579.16;;;12.44;46.45
39455;BME280;25155;41.890;23.446;2023-04-01T13:18:58;90561.88;;;12.43;46.29
39455;BME280;25155;41.890;23.446;2023-04-01T13:21:34;90557.56;;;12.38;46.66
39455;BME280;25155;41.890;23.446;2023-04-01T13:24:09;90559.72;;;12.24;47.06
39455;BME280;25155;41.890;23.446;2023-04-01T13:26:49;90563.91;;;12.25;47.58
39455;BME280;25155;41.890;23.446;2023-04-01T13:29:23;90563.31;;;12.19;48.10
39455;BME280;25155;41.890;23.446;2023-04-01T13:32:03;90552.34;;;12.05;49.69
39455;BME280;25155;41.890;23.446;2023-04-01T13:34:39;90558.34;;;12.05;50.10
39455;BME280;25155;41.890;23.446;2023-04-01T13:37:19;90552.78;;;12.07;51.14
39455;BME280;25155;41.890;23.446;2023-04-01T13:40:00;90562.66;;;12.10;50.98
39455;BME280;25155;41.890;23.446;2023-04-01T13:42:35;90569.34;;;12.20;50.84
39455;BME280;25155;41.890;23.446;2023-04-01T13:45:12;90565.63;;;12.21;51.58
39455;BME280;25155;41.890;23.446;2023-04-01T13:48:14;90569.34;;;12.20;50.87
39455;BME280;25155;41.890;23.446;2023-04-01T13:51:01;90567.78;;;11.85;51.50
39455;BME280;25155;41.890;23.446;2023-04-01T13:54:00;90570.81;;;11.75;51.38
39455;BME280;25155;41.890;23.446;2023-04-01T13:56:40;90564.34;;;11.72;51.17
39455;BME280;25155;41.890;23.446;2023-04-01T13:59:32;90551.53;;;11.71;51.64
39455;BME280;25155;41.890;23.446;2023-04-01T14:02:23;90548.34;;;11.86;51.11
39455;BME280;25155;41.890;23.446;2023-04-01T14:05:14;90536.81;;;11.79;51.06
39455;BME280;25155;41.890;23.446;2023-04-01T14:07:52;90533.47;;;11.90;51.48
39455;BME280;25155;41.890;23.446;2023-04-01T14:10:27;90536.50;;;12.13;51.03
39455;BME280;25155;41.890;23.446;2023-04-01T14:13:00;90540.69;;;12.27;50.40
39455;BME280;25155;41.890;23.446;2023-04-01T14:15:44;90543.09;;;12.32;49.57
39455;BME280;25155;41.890;23.446;2023-04-01T14:18:25;90534.69;;;12.39;50.13
39455;BME280;25155;41.890;23.446;2023-04-01T14:21:07;90535.59;;;12.43;48.78
39455;BME280;25155;41.890;23.446;2023-04-01T14:24:08;90534.03;;;12.29;49.27
39455;BME280;25155;41.890;23.446;2023-04-01T14:33:03;90508.06;;;12.16;49.44
39455;BME280;25155;41.890;23.446;2023-04-01T14:35:37;90491.09;;;12.13;49.89
39455;BME280;25155;41.890;23.446;2023-04-01T14:38:28;90493.19;;;12.20;49.39
39455;BME280;25155;41.890;23.446;2023-04-01T14:41:13;90498.19;;;12.12;49.58
39455;BME280;25155;41.890;23.446;2023-04-01T14:43:59;90497.22;;;12.05;49.11
39455;BME280;25155;41.890;23.446;2023-04-01T14:47:04;90510.25;;;12.13;49.01
39455;BME280;25155;41.890;23.446;2023-04-01T14:49:40;90520.84;;;12.17;49.29
39455;BME280;25155;41.890;23.446;2023-04-01T14:52:13;90544.28;;;12.22;49.20
39455;BME280;25155;41.890;23.446;2023-04-01T14:54:44;90619.78;;;12.13;49.77
39455;BME280;25155;41.890;23.446;2023-04-01T15:22:01;90621.59;;;9.06;59.11
39455;BME280;25155;41.890;23.446;2023-04-01T15:24:43;90628.38;;;8.67;60.18
39455;BME280;25155;41.890;23.446;2023-04-01T15:27:25;90615.88;;;8.55;61.53
39455;BME280;25155;41.890;23.446;2023-04-01T15:30:21;90609.69;;;8.51;61.08
39455;BME280;25155;41.890;23.446;2023-04-01T15:33:06;90590.50;;;8.47;61.86
39455;BME280;25155;41.890;23.446;2023-04-01T15:35:45;90588.38;;;8.26;62.34
39455;BME280;25155;41.890;23.446;2023-04-01T15:38:23;90576.78;;;8.10;63.58
39455;BME280;25155;41.890;23.446;2023-04-01T15:40:57;90583.13;;;7.95;64.27
39455;BME280;25155;41.890;23.446;2023-04-01T15:43:33;90573.09;;;7.88;64.56
39455;BME280;25155;41.890;23.446;2023-04-01T15:46:16;90585.34;;;7.79;65.08
39455;BME280;25155;41.890;23.446;2023-04-01T15:48:52;90598.56;;;7.83;66.07
39455;BME280;25155;41.890;23.446;2023-04-01T15:51:37;90590.28;;;7.67;66.20
39455;BME280;25155;41.890;23.446;2023-04-01T15:54:24;90601.91;;;7.61;67.17
39455;BME280;25155;41.890;23.446;2023-04-01T15:57:09;90602.97;;;7.60;67.04
39455;BME280;25155;41.890;23.446;2023-04-01T15:59:53;90611.75;;;7.64;66.71
39455;BME280;25155;41.890;23.446;2023-04-01T16:02:31;90614.47;;;7.59;67.37
39455;BME280;25155;41.890;23.446;2023-04-01T16:05:06;90614.22;;;7.46;68.08
39455;BME280;25155;41.890;23.446;2023-04-01T16:07:51;90618.56;;;7.37;68.68
39455;BME280;25155;41.890;23.446;2023-04-01T16:10:34;90626.69;;;7.36;68.80
39455;BME280;25155;41.890;23.446;2023-04-01T16:13:08;90616.66;;;7.01;70.49
39455;BME280;25155;41.890;23.446;2023-04-01T16:15:47;90611.44;;;7.15;69.98
39455;BME280;25155;41.890;23.446;2023-04-01T16:18:32;90608.44;;;7.08;70.25
39455;BME280;25155;41.890;23.446;2023-04-01T16:21:06;90602.28;;;7.04;70.63
39455;BME280;25155;41.890;23.446;2023-04-01T16:23:39;90608.56;;;7.03;70.95
39455;BME280;25155;41.890;23.446;2023-04-01T16:26:24;90604.41;;;6.88;71.68
39455;BME280;25155;41.890;23.446;2023-04-01T16:28:57;90604.91;;;6.76;72.16
39455;BME280;25155;41.890;23.446;2023-04-01T16:31:34;90600.28;;;6.73;72.02
39455;BME280;25155;41.890;23.446;2023-04-01T16:34:08;90599.69;;;6.76;72.21
39455;BME280;25155;41.890;23.446;2023-04-01T16:36:43;90592.56;;;6.68;72.39
39455;BME280;25155;41.890;23.446;2023-04-01T16:39:28;90601.44;;;6.67;72.80
39455;BME280;25155;41.890;23.446;2023-04-01T16:42:15;90602.50;;;6.66;72.89
39455;BME280;25155;41.890;23.446;2023-04-01T16:44:49;90599.72;;;6.62;72.70
39455;BME280;25155;41.890;23.446;2023-04-01T16:47:19;90605.88;;;6.66;73.04
39455;BME280;25155;41.890;23.446;2023-04-01T16:49:52;90608.56;;;6.61;72.40
39455;BME280;25155;41.890;23.446;2023-04-01T16:52:35;90615.22;;;6.67;72.46
39455;BME280;25155;41.890;23.446;2023-04-01T16:55:15;90613.50;;;6.76;71.33
39455;BME280;25155;41.890;23.446;2023-04-01T16:57:50;90623.03;;;6.81;71.12
39455;BME280;25155;41.890;23.446;2023-04-01T17:00:24;90642.53;;;6.84;71.61
39455;BME280;25155;41.890;23.446;2023-04-01T17:03:02;90645.53;;;6.77;71.83
39455;BME280;25155;41.890;23.446;2023-04-01T17:05:42;90650.16;;;6.94;71.67
39455;BME280;25155;41.890;23.446;2023-04-01T17:08:21;90645.97;;;6.93;71.21
39455;BME280;25155;41.890;23.446;2023-04-01T17:10:53;90640.41;;;7.00;71.25
39455;BME280;25155;41.890;23.446;2023-04-01T17:13:40;90635.97;;;7.00;70.45
39455;BME280;25155;41.890;23.446;2023-04-01T17:16:24;90636.84;;;6.95;71.29
39455;BME280;25155;41.890;23.446;2023-04-01T17:19:01;90621.69;;;6.84;72.33
39455;BME280;25155;41.890;23.446;2023-04-01T17:21:46;90630.75;;;6.86;72.29
39455;BME280;25155;41.890;23.446;2023-04-01T17:24:29;90619.09;;;6.84;73.29
39455;BME280;25155;41.890;23.446;2023-04-01T17:27:05;90640.00;;;6.92;72.36
39455;BME280;25155;41.890;23.446;2023-04-01T17:29:43;90661.53;;;6.98;72.33
39455;BME280;25155;41.890;23.446;2023-04-01T17:32:17;90680.53;;;6.98;72.46
39455;BME280;25155;41.890;23.446;2023-04-01T17:34:57;90686.03;;;6.97;73.39
39455;BME280;25155;41.890;23.446;2023-04-01T17:37:41;90673.91;;;7.06;73.02
39455;BME280;25155;41.890;23.446;2023-04-01T17:40:25;90673.69;;;7.03;74.10
39455;BME280;25155;41.890;23.446;2023-04-01T17:42:59;90688.53;;;7.02;73.02
39455;BME280;25155;41.890;23.446;2023-04-01T17:45:33;90710.09;;;6.61;72.32
39455;BME280;25155;41.890;23.446;2023-04-01T17:48:16;90747.09;;;6.25;72.49
39455;BME280;25155;41.890;23.446;2023-04-01T17:50:53;90756.66;;;6.11;72.41
39455;BME280;25155;41.890;23.446;2023-04-01T17:53:33;90768.03;;;6.15;71.35
39455;BME280;25155;41.890;23.446;2023-04-01T17:56:09;90792.78;;;5.93;72.01
39455;BME280;25155;41.890;23.446;2023-04-01T17:58:45;90784.16;;;5.98;72.31
39455;BME280;25155;41.890;23.446;2023-04-01T18:01:24;90777.47;;;6.11;72.15
39455;BME280;25155;41.890;23.446;2023-04-01T18:04:07;90784.66;;;6.19;71.90
39455;BME280;25155;41.890;23.446;2023-04-01T18:06:36;90775.78;;;6.20;71.94
39455;BME280;25155;41.890;23.446;2023-04-01T18:09:17;90816.78;;;6.09;72.58
39455;BME280;25155;41.890;23.446;2023-04-01T18:11:59;90844.53;;;5.46;75.53
39455;BME280;25155;41.890;23.446;2023-04-01T18:17:43;90827.75;;;5.34;77.50
39455;BME280;25155;41.890;23.446;2023-04-01T18:20:30;90836.59;;;5.32;77.62
39455;BME280;25155;41.890;23.446;2023-04-01T18:23:02;90842.56;;;5.33;77.07
39455;BME280;25155;41.890;23.446;2023-04-01T18:25:34;90834.19;;;5.12;77.00
39455;BME280;25155;41.890;23.446;2023-04-01T18:28:21;90835.00;;;5.07;77.39
39455;BME280;25155;41.890;23.446;2023-04-01T18:30:53;90819.38;;;5.12;77.38
39455;BME280;25155;41.890;23.446;2023-04-01T18:33:26;90816.91;;;5.26;76.42
39455;BME280;25155;41.890;23.446;2023-04-01T18:36:03;90811.44;;;5.28;76.28
39455;BME280;25155;41.890;23.446;2023-04-01T18:38:36;90807.84;;;5.24;76.28
39455;BME280;25155;41.890;23.446;2023-04-01T18:41:13;90803.97;;;5.21;76.41
39455;BME280;25155;41.890;23.446;2023-04-01T18:43:48;90795.06;;;5.27;76.50
39455;BME280;25155;41.890;23.446;2023-04-01T18:46:30;90789.25;;;5.36;76.40
39455;BME280;25155;41.890;23.446;2023-04-01T18:49:14;90785.19;;;5.29;76.76
39455;BME280;25155;41.890;23.446;2023-04-01T18:51:47;90781.59;;;5.25;77.12
39455;BME280;25155;41.890;23.446;2023-04-01T18:54:23;90782.50;;;5.10;77.57
39455;BME280;25155;41.890;23.446;2023-04-01T18:57:01;90778.19;;;5.01;78.35
39455;BME280;25155;41.890;23.446;2023-04-01T18:59:34;90780.84;;;4.95;79.12
39455;BME280;25155;41.890;23.446;2023-04-01T19:02:14;90789.44;;;4.91;79.34
39455;BME280;25155;41.890;23.446;2023-04-01T19:04:49;90781.00;;;4.80;79.54
39455;BME280;25155;41.890;23.446;2023-04-01T19:07:40;90781.75;;;4.81;80.42
39455;BME280;25155;41.890;23.446;2023-04-01T19:10:35;90777.94;;;4.73;81.01
39455;BME280;25155;41.890;23.446;2023-04-01T19:13:13;90779.00;;;4.72;81.70
39455;BME280;25155;41.890;23.446;2023-04-01T19:15:50;90787.75;;;4.76;81.73
39455;BME280;25155;41.890;23.446;2023-04-01T19:21:18;90780.81;;;4.71;82.17
39455;BME280;25155;41.890;23.446;2023-04-01T19:24:14;90785.53;;;4.64;82.34
39455;BME280;25155;41.890;23.446;2023-04-01T19:26:49;90790.41;;;4.71;81.94
39455;BME280;25155;41.890;23.446;2023-04-01T19:29:33;90794.28;;;4.73;82.10
39455;BME280;25155;41.890;23.446;2023-04-01T19:32:14;90796.63;;;4.75;81.56
39455;BME280;25155;41.890;23.446;2023-04-01T19:34:52;90791.69;;;4.73;81.05
39455;BME280;25155;41.890;23.446;2023-04-01T19:37:38;90805.53;;;4.64;81.15
39455;BME280;25155;41.890;23.446;2023-04-01T19:40:22;90813.31;;;4.64;81.12
39455;BME280;25155;41.890;23.446;2023-04-01T19:42:59;90813.84;;;4.61;81.01
39455;BME280;25155;41.890;23.446;2023-04-01T19:45:37;90819.50;;;4.68;81.04
39455;BME280;25155;41.890;23.446;2023-04-01T19:48:13;90828.31;;;4.72;80.86
39455;BME280;25155;41.890;23.446;2023-04-01T19:50:48;90827.00;;;4.69;80.73
39455;BME280;25155;41.890;23.446;2023-04-01T19:53:27;90826.78;;;4.66;80.35
39455;BME280;25155;41.890;23.446;2023-04-01T19:56:01;90839.94;;;4.74;80.17
39455;BME280;25155;41.890;23.446;2023-04-01T19:58:39;90828.22;;;4.82;79.82
39455;BME280;25155;41.890;23.446;2023-04-01T20:01:15;90844.84;;;4.81;79.31
39455;BME280;25155;41.890;23.446;2023-04-01T20:03:47;90841.81;;;4.69;79.84
39455;BME280;25155;41.890;23.446;2023-04-01T20:06:25;90833.03;;;4.65;80.30
39455;BME280;25155;41.890;23.446;2023-04-01T20:11:55;90832.56;;;4.57;80.26
39455;BME280;25155;41.890;23.446;2023-04-01T20:14:32;90836.22;;;4.56;80.15
39455;BME280;25155;41.890;23.446;2023-04-01T20:17:15;90831.31;;;4.50;80.53
39455;BME280;25155;41.890;23.446;2023-04-01T20:19:48;90816.06;;;4.38;80.91
39455;BME280;25155;41.890;23.446;2023-04-01T20:22:31;90826.97;;;4.40;80.99
39455;BME280;25155;41.890;23.446;2023-04-01T20:25:10;90842.06;;;4.33;81.68
39455;BME280;25155;41.890;23.446;2023-04-01T20:27:45;90836.38;;;4.31;82.13
39455;BME280;25155;41.890;23.446;2023-04-01T20:30:38;90846.75;;;4.31;81.54
39455;BME280;25155;41.890;23.446;2023-04-01T20:36:24;90851.97;;;4.26;81.30
39455;BME280;25155;41.890;23.446;2023-04-01T20:39:07;90846.78;;;4.26;80.83
39455;BME280;25155;41.890;23.446;2023-04-01T20:41:48;90844.16;;;4.31;80.88
39455;BME280;25155;41.890;23.446;2023-04-01T20:44:29;90841.28;;;4.32;79.75
39455;BME280;25155;41.890;23.446;2023-04-01T20:47:12;90853.75;;;4.30;79.58
39455;BME280;25155;41.890;23.446;2023-04-01T20:49:47;90859.94;;;4.34;79.79
39455;BME280;25155;41.890;23.446;2023-04-01T20:52:27;90853.25;;;4.23;79.89
39455;BME280;25155;41.890;23.446;2023-04-01T20:55:21;90848.06;;;4.23;79.50
39455;BME280;25155;41.890;23.446;2023-04-01T20:58:05;90843.94;;;4.22;79.43
39455;BME280;25155;41.890;23.446;2023-04-01T21:00:46;90855.38;;;4.16;79.73